Airfield :
LOGIN :

Register | Disclaimer

   EN    FR    IT 

 










Legend :    VFR   Marginal VFR   IFR   Intensive IFR   Very Intensive IFR
Visi :
Ceiling :
>= 8 km
>= 3000ft
5 to 8 km
1000 to 3000 ft
1500m to 5 km
500 to 1000 ft
800 to 1500m
200 to 500 ft
< 800m
< 200 ft
Symbols :   Thunderstorms  Fog  Heavy snow  Heavy precipitations  Wind > 20 kt
SIGMETs :     Misc.  Thunderstorms  Icing  Turbulence  Mountain Waves  Volcanic Ashes






- Airport Elevation : 2945 ft
- IATA code : RGS


LEBG - Burgos

CURRENT METAR :
  • 060030Z AUTO 05011KT 020V080 9999 OVC016 02/00 Q1032

EXPIRED METARs :
  • 060000Z AUTO 04017KT 010V070 9999 OVC017 02/00 Q1032
  • 052330Z AUTO 04015KT 9999 OVC016 02/00 Q1032
  • 052300Z AUTO 05014KT 9999 OVC014 02/M00 Q1033
  • 052230Z AUTO 05014KT 9999 OVC013 02/M00 Q1033
  • 052130Z AUTO 06014KT 9999 OVC013 02/M00 Q1033

TAF TAF LEBG
Valid from the 05 at 21:00 until the 06 at 21:00 UTC


052000Z 0521/0621 05015KT 9999 BKN020 TX07/0615Z TNM04/0606Z
PROB40
TEMPO 0521/0605 04020G35KT
PROB40
TEMPO 0521/0607 2500 BR BCFG BKN008
PROB30
TEMPO 0607/0612 BKN012
PROB40
TEMPO 0521/0621 4000 DZ SCT014



MET'MAP, your aeronautical weather chart ! - Copyright ORBIFLY December 2007 - Disclaimer

ORBIFLY MET'MAP TEAM :

Programming & Development : Alexandra Zaïnal
Original concept : Baudouin d'Aumeries
Technical & hardware support : Manuel Goepfert
Assistance : Marc-Olivier Méhu




SOURCES & CREDITS :

   NOAA